createdAt,value
2022-10-21T06:15:28.468Z,11.65
2022-10-21T06:25:28.626Z,11.83
2022-10-21T06:35:28.479Z,12.17
2022-10-21T06:45:28.604Z,12.26
2022-10-21T06:55:28.632Z,12.30
2022-10-21T07:05:28.722Z,12.53
2022-10-21T07:15:28.597Z,12.63
2022-10-21T07:25:28.592Z,12.73
2022-10-21T07:35:28.685Z,12.79
2022-10-21T07:45:28.582Z,12.89
2022-10-21T07:55:28.640Z,12.94
2022-10-21T08:05:28.643Z,13.17
2022-10-21T08:15:28.622Z,13.49
2022-10-21T08:25:28.640Z,13.62
2022-10-21T08:35:28.782Z,13.76
2022-10-21T08:45:28.972Z,14.19
2022-10-21T08:55:29.019Z,15.06
2022-10-21T09:05:28.975Z,15.65
2022-10-21T09:15:29.192Z,15.83
2022-10-21T09:25:29.112Z,16.06
2022-10-21T09:35:29.159Z,16.33
2022-10-21T09:45:29.059Z,16.48
2022-10-21T09:55:29.208Z,16.69
2022-10-21T10:05:29.057Z,16.48
2022-10-21T10:15:31.405Z,16.55
2022-10-21T10:25:28.999Z,16.52
2022-10-21T10:35:29.148Z,16.47
2022-10-21T10:45:29.145Z,16.45
2022-10-21T10:55:28.918Z,16.48
2022-10-21T11:05:28.962Z,16.42
2022-10-21T11:15:29.001Z,16.03
2022-10-21T11:25:29.105Z,15.93
2022-10-21T11:35:28.963Z,15.95
2022-10-21T11:45:29.068Z,15.98
2022-10-21T11:55:28.989Z,16.01
2022-10-21T12:05:29.183Z,15.98
2022-10-21T12:15:29.073Z,16.02
2022-10-21T12:25:29.151Z,16.00
2022-10-21T12:35:29.081Z,15.95
2022-10-21T12:45:29.212Z,15.93
2022-10-21T12:55:29.256Z,15.93
2022-10-21T13:05:29.170Z,15.98
2022-10-21T13:15:29.174Z,15.85
2022-10-21T13:25:29.351Z,15.68
2022-10-21T13:35:29.256Z,15.56
2022-10-21T13:45:29.269Z,15.56
2022-10-21T13:55:29.233Z,15.38
2022-10-21T14:05:29.249Z,15.13
2022-10-21T14:15:29.200Z,14.95
2022-10-21T14:25:29.387Z,14.79
2022-10-21T14:35:29.289Z,14.72
2022-10-21T14:45:29.205Z,14.67
2022-10-21T14:55:29.235Z,14.66
2022-10-21T15:05:29.340Z,14.64
2022-10-21T15:15:29.254Z,14.63
2022-10-21T15:25:30.133Z,14.60
2022-10-21T15:35:29.289Z,14.54
2022-10-21T15:45:29.537Z,14.51
2022-10-21T15:55:29.530Z,14.40
2022-10-21T16:05:29.613Z,14.35
2022-10-21T16:15:29.590Z,14.23
2022-10-21T16:25:29.569Z,14.11
2022-10-21T16:35:29.619Z,14.07
2022-10-21T16:45:29.739Z,14.06
2022-10-21T16:55:29.561Z,13.98
2022-10-21T17:05:29.621Z,13.85
2022-10-21T17:15:29.697Z,13.84
2022-10-21T17:25:29.555Z,13.87
2022-10-21T17:35:29.530Z,13.84
2022-10-21T17:45:29.586Z,13.84
2022-10-21T17:55:30.551Z,13.85
2022-10-21T18:05:29.711Z,13.87
2022-10-21T18:15:29.623Z,13.87
2022-10-21T18:25:29.632Z,13.85
2022-10-21T18:35:29.924Z,13.50
2022-10-21T18:45:29.882Z,12.95
2022-10-21T18:55:30.000Z,12.67
2022-10-21T19:05:30.029Z,12.68
2022-10-21T19:15:30.300Z,12.45
